Vajmat, Sweden

12:15 PM CEST on August 22, 2014 (GMT +0200)
Lappland | Change Station
CLOSE
Current Station
Personal Weather Station
Location: Jokkmokk, BD
Elevation: 850 ft
Nearby Weather Stations

Elev 850 ft 66.61 °N, 19.82 °E | Updated 19 seconds ago

Overcast
Overcast
58.3 °F
Feels Like 58.3 °F
N
6.0
Wind Variable Wind from North
Gusts 6.0 mph

Today
High -- | Low -- °F
--% Chance of Precip.
Yesterday
High -- | Low -- °F
Precip. -- in
4:39 AM 8:46 PM
Waning Crescent, 9% visible
Pressure 29.68 in
Visibility 3.1 miles
Clouds Few 700 ft
Scattered Clouds 1600 ft
Overcast 2300 ft
Dew Point 47 °F
Humidity 67%
Rainfall 0.00 in
Snow Depth Not available.
UV 1 out of 12
Pollen Not available.
Air Quality Not available.
Flu Activity Not available.
METAR ESPE 220950Z AUTO 01003KT 340V040 5000NDV RA FEW007/// SCT016/// OVC023/// 10/09 Q1005

More Conditions Fewer Conditions

Pressure 29.68 in
Visibility 3.1 miles
Clouds Few 700 ft
Scattered Clouds 1600 ft
Overcast 2300 ft
Dew Point 47 °F
Humidity 67%
Rainfall 0.00 in
Snow Depth Not available.
UV 1 out of 12
Pollen Not available.
Air Quality Not available.
Flu Activity Not available.
METAR ESPE 220950Z AUTO 01003KT 340V040 5000NDV RA FEW007/// SCT016/// OVC023/// 10/09 Q1005

More Conditions Fewer Conditions

10-Day Weather Forecast

Almanac

Astronomy

Aug. 22, 2014 Rise Set
Actual Time 4:39 AM CEST 8:46 PM CEST
Civil Twilight 3:29 AM CEST 9:54 PM CEST
Nautical Twilight 1:16 AM CEST 12:11 AM CEST
Astronomical Twilight Sun does not rise Sun does not rise
Moon 1:02 AM CEST 7:12 PM CEST
Length of Visible Light 18h 25m
Length of Day
16h 07m
Tomorrow will be 7m 32s shorter.
Waning Crescent, 9% of the Moon is Illuminated
Today
Waning Crescent
Aug 25
New
Sep 2
First Quarter
Sep 8
Full
Sep 15
Last Quarter

Yesterday's Extremes

Country Highs Country Lows

Community

WunderPhotos

Upload Photos

1,746,147 photos uploaded!

Nearby

Snow Depth

Not available.

Earthquake Activity

City Distance Mag. Time & Date
No recent earthquake activity has been reported nearby.
Minimum magnitude displayed is 2.5.

Coastal Water Temperatures

Place Temperature
No Stations Reporting

Nearby Weather Stations